Time;durP1;ratioP1;P1;durP2;ratioP2;P2;SDS_P1;SDS_P2;PMS_P1;PMS_P2;Temp;Humidity;BMP_temperature;BMP_pressure;BME280_temperature;BME280_humidity;BME280_pressure;Samples;Min_cycle;Max_cycle;Signal;HPM_P1;HPM_P2
2022/01/20 00:01:44;;;;;;;;;;;22.60;55.00;;;;;;4996672;28;1029;-35
2022/01/20 00:04:23;;;;;;;;;;;22.60;55.00;;;;;;4996796;28;933;-35
2022/01/20 00:23:28;;;;;;;;;;;22.40;55.20;;;;;;5039894;28;1079;-35
2022/01/20 00:26:02;;;;;;;;;;;22.40;55.30;;;;;;4996477;28;949;-35
2022/01/20 00:28:40;;;;;;;;;;;22.40;55.30;;;;;;4996509;28;960;-35
2022/01/20 00:31:14;;;;;;;;;;;22.40;55.20;;;;;;4996310;28;937;-35
2022/01/20 00:33:45;;;;;;;;;;;22.40;55.30;;;;;;4996471;28;981;-35
2022/01/20 00:38:56;;;;;;;;;;;22.30;55.40;;;;;;4995795;28;960;-34
2022/01/20 00:41:24;;;;;;;;;;;22.30;55.30;;;;;;4995729;28;1082;-35
2022/01/20 00:43:51;;;;;;;;;;;22.30;55.50;;;;;;4994170;28;1020;-34
2022/01/20 00:46:18;;;;;;;;;;;22.30;55.50;;;;;;4993345;28;1059;-35
2022/01/20 00:48:44;;;;;;;;;;;22.30;55.40;;;;;;4993749;28;972;-35
2022/01/20 00:51:11;;;;;;;;;;;22.40;55.40;;;;;;4995303;28;981;-35
2022/01/20 00:53:43;;;;;;;;;;;22.30;55.20;;;;;;4995399;28;973;-35
2022/01/20 00:56:11;;;;;;;;;;;22.30;55.30;;;;;;4993305;28;1983;-35
2022/01/20 00:58:39;;;;;;;;;;;22.30;55.30;;;;;;4995552;28;881;-35
2022/01/20 01:01:05;;;;;;;;;;;22.40;55.30;;;;;;4995230;28;964;-35
2022/01/20 01:03:32;;;;;;;;;;;22.40;55.20;;;;;;4995482;28;901;-35
2022/01/20 01:06:10;;;;;;;;;;;22.40;55.00;;;;;;4995982;28;1043;-35
2022/01/20 01:08:38;;;;;;;;;;;22.50;55.10;;;;;;4995662;28;976;-35
2022/01/20 01:11:04;;;;;;;;;;;22.50;55.00;;;;;;4998879;28;1012;-35
2022/01/20 01:13:31;;;;;;;;;;;22.50;54.80;;;;;;4999115;28;933;-35
2022/01/20 01:15:59;;;;;;;;;;;22.50;55.00;;;;;;4999771;28;952;-35
2022/01/20 01:21:26;;;;;;;;;;;22.50;54.90;;;;;;4998940;28;621;-35
2022/01/20 01:23:53;;;;;;;;;;;22.50;54.90;;;;;;4999588;28;1008;-34
2022/01/20 01:26:21;;;;;;;;;;;22.50;54.80;;;;;;4998851;28;1025;-34
2022/01/20 01:28:49;;;;;;;;;;;22.50;54.70;;;;;;4998480;28;1502;-34
2022/01/20 01:34:09;;;;;;;;;;;22.40;54.80;;;;;;4999389;28;768;-34
2022/01/20 01:36:49;;;;;;;;;;;22.40;54.70;;;;;;4998893;28;1899;-35
2022/01/20 01:39:17;;;;;;;;;;;22.50;54.70;;;;;;4999338;28;1000;-35
2022/01/20 01:41:44;;;;;;;;;;;22.40;54.60;;;;;;4998965;28;961;-35
2022/01/20 01:44:19;;;;;;;;;;;22.40;54.60;;;;;;4999196;28;1160;-35
2022/01/20 01:46:48;;;;;;;;;;;22.40;54.60;;;;;;4998994;28;995;-35
2022/01/20 01:49:15;;;;;;;;;;;22.40;54.80;;;;;;4998543;28;988;-35
2022/01/20 01:51:42;;;;;;;;;;;22.50;54.60;;;;;;4998660;28;1024;-35
2022/01/20 01:54:11;;;;;;;;;;;22.50;54.70;;;;;;4998134;28;938;-35
2022/01/20 01:56:40;;;;;;;;;;;22.40;54.60;;;;;;4997872;28;1910;-34
2022/01/20 01:59:07;;;;;;;;;;;22.50;54.60;;;;;;4999145;28;929;-34
2022/01/20 02:01:36;;;;;;;;;;;22.40;54.80;;;;;;4998402;28;980;-34
2022/01/20 02:04:13;;;;;;;;;;;22.40;54.70;;;;;;4998674;28;1000;-35
2022/01/20 02:06:59;;;;;;;;;;;22.40;54.60;;;;;;4998406;28;1013;-36
2022/01/20 02:09:43;;;;;;;;;;;22.40;54.60;;;;;;4998846;28;945;-35
2022/01/20 02:17:59;;;;;;;;;;;22.30;54.60;;;;;;4997966;28;1981;-32
2022/01/20 02:20:29;;;;;;;;;;;22.40;54.60;;;;;;4997801;28;957;-32
2022/01/20 02:22:56;;;;;;;;;;;22.30;54.50;;;;;;4998215;28;1032;-32
2022/01/20 02:25:24;;;;;;;;;;;22.30;54.40;;;;;;4998260;28;969;-32
2022/01/20 02:27:51;;;;;;;;;;;22.30;54.50;;;;;;4998251;28;998;-34
2022/01/20 02:30:18;;;;;;;;;;;22.30;54.50;;;;;;4998170;28;984;-32
2022/01/20 02:32:51;;;;;;;;;;;22.30;54.60;;;;;;4998509;28;933;-32
2022/01/20 02:35:18;;;;;;;;;;;22.30;54.70;;;;;;4998277;28;980;-33
2022/01/20 02:37:47;;;;;;;;;;;22.30;54.60;;;;;;4997877;28;1910;-32
2022/01/20 02:40:34;;;;;;;;;;;22.30;54.70;;;;;;4997784;28;1052;-32
2022/01/20 02:45:44;;;;;;;;;;;22.20;54.60;;;;;;4997373;28;1088;-34
2022/01/20 02:48:12;;;;;;;;;;;22.20;54.70;;;;;;4998010;28;1026;-34
2022/01/20 02:50:39;;;;;;;;;;;22.10;54.80;;;;;;4998076;28;976;-34
2022/01/20 02:53:07;;;;;;;;;;;22.10;54.90;;;;;;4998120;28;969;-34
2022/01/20 02:55:34;;;;;;;;;;;22.00;54.90;;;;;;4997764;28;941;-35
2022/01/20 02:58:01;;;;;;;;;;;22.10;55.00;;;;;;4997909;28;1906;-33
2022/01/20 03:00:28;;;;;;;;;;;22.10;54.90;;;;;;4997552;28;929;-34
2022/01/20 03:02:56;;;;;;;;;;;22.20;54.70;;;;;;4997735;28;1008;-34
2022/01/20 03:05:23;;;;;;;;;;;22.20;54.70;;;;;;4997358;28;981;-33
2022/01/20 03:07:50;;;;;;;;;;;22.10;54.80;;;;;;4997785;28;1040;-33
2022/01/20 03:10:18;;;;;;;;;;;22.10;54.80;;;;;;4997715;28;948;-33
2022/01/20 03:12:44;;;;;;;;;;;22.10;54.90;;;;;;4997746;28;988;-33
2022/01/20 03:15:11;;;;;;;;;;;22.10;54.70;;;;;;4997643;28;1050;-33
2022/01/20 03:20:52;;;;;;;;;;;22.00;54.90;;;;;;4997102;28;688;-33
2022/01/20 03:23:18;;;;;;;;;;;22.00;54.90;;;;;;4997667;28;957;-33
2022/01/20 03:25:46;;;;;;;;;;;22.00;54.80;;;;;;4996643;28;1016;-36
2022/01/20 03:28:14;;;;;;;;;;;22.00;54.80;;;;;;4997542;28;1005;-34
2022/01/20 03:30:40;;;;;;;;;;;22.00;54.80;;;;;;4997125;28;975;-35
2022/01/20 03:33:07;;;;;;;;;;;22.00;54.60;;;;;;4997566;28;942;-34
2022/01/20 03:35:34;;;;;;;;;;;22.00;54.60;;;;;;4997411;28;1036;-34
2022/01/20 03:38:01;;;;;;;;;;;22.00;54.60;;;;;;4997142;28;1899;-34
2022/01/20 03:40:28;;;;;;;;;;;22.00;54.60;;;;;;4996850;28;948;-35
2022/01/20 03:42:56;;;;;;;;;;;22.00;54.70;;;;;;4997278;28;938;-37
2022/01/20 03:45:25;;;;;;;;;;;22.00;54.60;;;;;;4996670;28;1269;-36
2022/01/20 03:47:55;;;;;;;;;;;22.00;54.60;;;;;;4997338;28;975;-37
2022/01/20 03:53:06;;;;;;;;;;;22.00;54.50;;;;;;4996815;28;1479;-37
2022/01/20 03:55:33;;;;;;;;;;;22.00;54.50;;;;;;4997400;28;976;-37
2022/01/20 03:58:01;;;;;;;;;;;22.00;54.50;;;;;;4996888;28;1985;-36
2022/01/20 04:00:28;;;;;;;;;;;22.00;54.60;;;;;;4996684;28;976;-37
2022/01/20 04:02:54;;;;;;;;;;;22.00;54.60;;;;;;4997121;28;937;-37
2022/01/20 04:05:21;;;;;;;;;;;22.00;54.60;;;;;;4996728;28;952;-36
2022/01/20 04:07:48;;;;;;;;;;;22.00;54.50;;;;;;4996808;28;1847;-36
2022/01/20 04:10:15;;;;;;;;;;;22.00;54.40;;;;;;4996849;28;936;-37
2022/01/20 04:12:42;;;;;;;;;;;21.90;54.30;;;;;;4997047;28;1009;-36
2022/01/20 04:15:10;;;;;;;;;;;21.90;54.50;;;;;;4996853;28;953;-37
2022/01/20 04:17:40;;;;;;;;;;;22.00;54.50;;;;;;4996811;28;1977;-37
2022/01/20 04:20:07;;;;;;;;;;;22.00;54.30;;;;;;4997083;28;945;-37
2022/01/20 04:22:34;;;;;;;;;;;22.00;54.10;;;;;;4996647;28;914;-37
2022/01/20 04:25:01;;;;;;;;;;;22.00;55.60;;;;;;4996568;28;925;-37
2022/01/20 04:27:27;;;;;;;;;;;22.00;54.30;;;;;;4996412;28;1012;-37
2022/01/20 04:29:54;;;;;;;;;;;21.90;54.30;;;;;;4996447;28;980;-37
2022/01/20 04:32:24;;;;;;;;;;;21.90;54.30;;;;;;4996357;28;929;-36
2022/01/20 04:34:50;;;;;;;;;;;21.90;54.40;;;;;;4996508;28;1031;-37
2022/01/20 04:37:17;;;;;;;;;;;21.90;54.30;;;;;;4996353;28;1902;-37
2022/01/20 04:39:48;;;;;;;;;;;21.90;54.30;;;;;;4996406;28;929;-36
2022/01/20 04:42:15;;;;;;;;;;;21.80;54.50;;;;;;4996011;28;995;-37
2022/01/20 04:44:47;;;;;;;;;;;21.90;54.40;;;;;;4995365;28;1040;-37
2022/01/20 04:47:32;;;;;;;;;;;22.00;54.40;;;;;;4996318;28;1004;-36
2022/01/20 04:58:12;;;;;;;;;;;22.20;54.40;;;;;;5036342;28;1989;-37
2022/01/20 05:00:39;;;;;;;;;;;22.20;54.30;;;;;;4995901;28;975;-37
2022/01/20 05:03:06;;;;;;;;;;;22.20;54.40;;;;;;4996245;28;982;-36
2022/01/20 05:05:34;;;;;;;;;;;22.30;54.40;;;;;;4995854;28;965;-37
2022/01/20 05:08:01;;;;;;;;;;;22.30;54.40;;;;;;4996019;28;992;-39
2022/01/20 05:10:30;;;;;;;;;;;22.30;54.40;;;;;;4995545;28;1004;-38
2022/01/20 05:13:07;;;;;;;;;;;22.30;54.30;;;;;;4995655;28;1001;-37
2022/01/20 05:15:34;;;;;;;;;;;22.30;54.20;;;;;;4995771;28;1810;-37
2022/01/20 05:18:01;;;;;;;;;;;22.40;54.20;;;;;;4995524;28;1902;-41
2022/01/20 05:20:28;;;;;;;;;;;22.40;55.30;;;;;;4995686;28;1013;-39
2022/01/20 05:22:56;;;;;;;;;;;22.40;54.20;;;;;;4995231;28;991;-39
2022/01/20 05:25:23;;;;;;;;;;;22.40;54.30;;;;;;4995974;28;882;-40
2022/01/20 05:27:50;;;;;;;;;;;22.40;54.30;;;;;;4995506;28;1016;-39
2022/01/20 05:30:16;;;;;;;;;;;22.30;54.30;;;;;;4995420;28;997;-40
2022/01/20 05:32:43;;;;;;;;;;;22.30;54.40;;;;;;4995307;28;974;-40
2022/01/20 05:35:10;;;;;;;;;;;22.30;54.40;;;;;;4995036;28;954;-43
2022/01/20 05:37:37;;;;;;;;;;;22.20;54.40;;;;;;4995214;28;1899;-41
2022/01/20 05:40:06;;;;;;;;;;;22.20;54.50;;;;;;4995392;28;973;-39
2022/01/20 05:42:33;;;;;;;;;;;22.20;54.60;;;;;;4995185;28;1231;-38
2022/01/20 05:44:59;;;;;;;;;;;22.20;54.50;;;;;;4994228;28;1040;-39
2022/01/20 05:47:29;;;;;;;;;;;22.20;54.30;;;;;;4994289;28;1306;-39
2022/01/20 05:49:56;;;;;;;;;;;22.20;54.40;;;;;;4994936;28;1008;-39
2022/01/20 05:52:22;;;;;;;;;;;22.30;54.30;;;;;;4993834;28;1008;-39
2022/01/20 05:54:49;;;;;;;;;;;22.40;55.20;;;;;;4994098;28;941;-39
2022/01/20 05:57:17;;;;;;;;;;;22.40;54.00;;;;;;4996448;28;979;-40
2022/01/20 05:59:44;;;;;;;;;;;22.40;53.90;;;;;;4997533;28;1981;-39
2022/01/20 06:02:24;;;;;;;;;;;22.40;53.90;;;;;;4997417;28;1015;-40
2022/01/20 06:04:51;;;;;;;;;;;22.40;53.80;;;;;;4997425;28;929;-40
2022/01/20 06:07:20;;;;;;;;;;;22.40;53.70;;;;;;4996625;28;1028;-40
2022/01/20 06:09:46;;;;;;;;;;;22.40;54.10;;;;;;4997731;28;961;-47
2022/01/20 06:12:13;;;;;;;;;;;22.40;53.80;;;;;;4997177;28;1001;-44
2022/01/20 06:14:41;;;;;;;;;;;22.40;53.70;;;;;;4997180;28;1013;-44
2022/01/20 06:17:08;;;;;;;;;;;22.40;53.70;;;;;;4996236;28;1039;-44
2022/01/20 06:19:35;;;;;;;;;;;22.40;53.70;;;;;;4997432;28;1977;-43
2022/01/20 06:22:01;;;;;;;;;;;22.40;53.70;;;;;;4994689;28;976;-41
2022/01/20 06:24:29;;;;;;;;;;;22.40;53.80;;;;;;4996537;28;914;-42
2022/01/20 06:26:56;;;;;;;;;;;22.40;53.70;;;;;;4995553;28;1025;-44
2022/01/20 06:29:23;;;;;;;;;;;22.40;53.80;;;;;;4995598;28;921;-44
2022/01/20 06:31:51;;;;;;;;;;;22.40;53.60;;;;;;4997142;28;996;-41
2022/01/20 06:34:18;;;;;;;;;;;22.40;53.90;;;;;;4995600;28;1032;-42
2022/01/20 06:36:44;;;;;;;;;;;22.50;54.00;;;;;;4996212;28;976;-44
2022/01/20 06:39:13;;;;;;;;;;;22.50;53.80;;;;;;4996080;28;1906;-41
2022/01/20 06:41:40;;;;;;;;;;;22.50;53.90;;;;;;4995825;28;1009;-40
2022/01/20 06:44:06;;;;;;;;;;;22.50;53.80;;;;;;4996778;28;972;-43
2022/01/20 06:46:33;;;;;;;;;;;22.50;53.90;;;;;;4996140;28;1272;-44
2022/01/20 06:49:02;;;;;;;;;;;22.60;53.90;;;;;;4996264;28;980;-43
2022/01/20 06:51:29;;;;;;;;;;;22.60;54.10;;;;;;4997039;28;984;-44
2022/01/20 06:53:56;;;;;;;;;;;22.60;53.90;;;;;;4996881;28;1018;-41
2022/01/20 06:56:23;;;;;;;;;;;22.60;53.80;;;;;;4996711;28;995;-45
2022/01/20 06:58:50;;;;;;;;;;;22.60;53.80;;;;;;4996997;28;1911;-42
2022/01/20 07:01:16;;;;;;;;;;;22.50;53.80;;;;;;4996569;28;962;-40
2022/01/20 07:03:43;;;;;;;;;;;22.50;53.80;;;;;;4996777;28;994;-45
2022/01/20 07:06:12;;;;;;;;;;;22.50;53.70;;;;;;4996151;28;1148;-41
2022/01/20 07:08:38;;;;;;;;;;;22.50;54.30;;;;;;4995862;28;1020;-37
2022/01/20 07:11:05;;;;;;;;;;;22.50;54.30;;;;;;4995874;28;1001;-39
2022/01/20 07:13:32;;;;;;;;;;;22.60;53.80;;;;;;4995421;28;1194;-37
2022/01/20 07:15:59;;;;;;;;;;;22.60;53.70;;;;;;4995771;28;858;-38
2022/01/20 07:18:25;;;;;;;;;;;22.70;53.50;;;;;;4995509;28;2048;-36
2022/01/20 07:20:52;;;;;;;;;;;22.70;53.50;;;;;;4996261;28;932;-39
2022/01/20 07:23:20;;;;;;;;;;;22.70;53.30;;;;;;4996399;28;1007;-37
2022/01/20 07:25:47;;;;;;;;;;;22.70;53.30;;;;;;4996321;28;948;-37
2022/01/20 07:28:14;;;;;;;;;;;22.70;53.10;;;;;;4996684;28;985;-38
2022/01/20 07:30:41;;;;;;;;;;;22.80;53.00;;;;;;4996212;28;942;-39
2022/01/20 07:33:08;;;;;;;;;;;22.80;52.90;;;;;;4995418;28;969;-37
2022/01/20 07:35:35;;;;;;;;;;;22.70;52.90;;;;;;4995528;28;964;-37
2022/01/20 07:38:02;;;;;;;;;;;22.80;52.90;;;;;;4996026;28;1109;-37
2022/01/20 07:40:31;;;;;;;;;;;22.80;52.90;;;;;;4995947;28;1036;-37
2022/01/20 07:42:58;;;;;;;;;;;22.80;52.90;;;;;;4994911;28;995;-38
2022/01/20 07:45:24;;;;;;;;;;;22.80;52.90;;;;;;4994676;28;1182;-37
2022/01/20 07:47:51;;;;;;;;;;;22.70;52.90;;;;;;4996391;28;1114;-39
2022/01/20 07:50:18;;;;;;;;;;;22.80;52.80;;;;;;4995198;28;1032;-37
2022/01/20 07:52:45;;;;;;;;;;;22.70;53.10;;;;;;4995834;28;1012;-38
2022/01/20 07:55:11;;;;;;;;;;;22.70;53.00;;;;;;4996133;28;969;-38
2022/01/20 07:57:40;;;;;;;;;;;22.70;52.80;;;;;;4996014;28;1033;-37
2022/01/20 08:00:07;;;;;;;;;;;22.70;52.80;;;;;;4995272;28;1913;-40
2022/01/20 08:02:34;;;;;;;;;;;22.80;52.70;;;;;;4995001;28;1012;-37
2022/01/20 08:05:01;;;;;;;;;;;22.70;52.60;;;;;;4994876;28;1039;-37
2022/01/20 08:07:28;;;;;;;;;;;22.70;52.60;;;;;;4995482;28;1032;-38
2022/01/20 08:09:58;;;;;;;;;;;22.70;52.60;;;;;;4995286;28;897;-40
2022/01/20 08:12:24;;;;;;;;;;;22.70;52.60;;;;;;4993531;28;949;-38
2022/01/20 08:14:53;;;;;;;;;;;22.70;52.60;;;;;;4995393;28;993;-41
2022/01/20 08:17:19;;;;;;;;;;;22.70;52.70;;;;;;4995972;28;1020;-36
2022/01/20 08:19:46;;;;;;;;;;;22.70;52.60;;;;;;4994328;28;1969;-39
2022/01/20 08:22:13;;;;;;;;;;;22.70;52.50;;;;;;4994493;28;972;-38
2022/01/20 08:24:41;;;;;;;;;;;22.70;52.50;;;;;;4994718;28;1169;-37
2022/01/20 08:27:08;;;;;;;;;;;22.70;52.40;;;;;;4994243;28;901;-39
2022/01/20 08:29:35;;;;;;;;;;;22.70;52.40;;;;;;4994262;28;961;-38
2022/01/20 08:32:03;;;;;;;;;;;22.70;52.40;;;;;;4994422;28;1021;-37
2022/01/20 08:34:30;;;;;;;;;;;22.70;52.30;;;;;;4994702;28;954;-38
2022/01/20 08:36:59;;;;;;;;;;;22.70;52.40;;;;;;4994396;28;1231;-36
2022/01/20 08:39:42;;;;;;;;;;;22.70;52.40;;;;;;4995004;28;1898;-37
2022/01/20 08:42:09;;;;;;;;;;;22.70;52.40;;;;;;4994856;28;1048;-38
2022/01/20 08:44:36;;;;;;;;;;;22.70;52.40;;;;;;4994281;28;1257;-38
2022/01/20 08:47:09;;;;;;;;;;;22.60;52.50;;;;;;4995002;28;964;-39
2022/01/20 08:49:36;;;;;;;;;;;22.70;52.40;;;;;;4995133;28;957;-38
2022/01/20 08:52:03;;;;;;;;;;;22.70;52.40;;;;;;4995021;28;961;-37
2022/01/20 08:54:30;;;;;;;;;;;22.70;52.40;;;;;;4994677;28;930;-37
2022/01/20 08:56:56;;;;;;;;;;;22.60;52.40;;;;;;4994612;28;1764;-37
2022/01/20 08:59:23;;;;;;;;;;;22.60;52.50;;;;;;4994472;28;2004;-37
2022/01/20 09:01:50;;;;;;;;;;;22.60;52.50;;;;;;4994664;28;1004;-37
2022/01/20 09:04:18;;;;;;;;;;;22.60;52.40;;;;;;4995073;28;980;-39
2022/01/20 09:06:45;;;;;;;;;;;22.60;52.60;;;;;;4993761;28;1012;-37
2022/01/20 09:09:11;;;;;;;;;;;22.60;52.50;;;;;;4994257;28;1005;-36
2022/01/20 09:11:50;;;;;;;;;;;22.50;52.70;;;;;;4994570;28;1016;-37
2022/01/20 09:17:01;;;;;;;;;;;22.60;52.70;;;;;;4993856;28;888;-38
2022/01/20 09:19:29;;;;;;;;;;;22.50;52.80;;;;;;4993979;28;1993;-37
2022/01/20 09:21:56;;;;;;;;;;;22.60;52.80;;;;;;4993991;28;1004;-37
2022/01/20 09:24:23;;;;;;;;;;;22.60;52.70;;;;;;4994538;28;972;-37
2022/01/20 09:26:49;;;;;;;;;;;22.60;52.60;;;;;;4993701;28;953;-38
2022/01/20 09:29:16;;;;;;;;;;;22.60;52.50;;;;;;4993630;28;1784;-38
2022/01/20 09:31:43;;;;;;;;;;;22.70;52.50;;;;;;4996481;28;1189;-37
2022/01/20 09:34:10;;;;;;;;;;;22.70;52.60;;;;;;4997169;28;1020;-38
2022/01/20 09:36:38;;;;;;;;;;;22.70;52.40;;;;;;4997135;28;1011;-37
2022/01/20 09:39:04;;;;;;;;;;;22.60;52.40;;;;;;4997258;28;1981;-36
2022/01/20 09:41:31;;;;;;;;;;;22.60;52.30;;;;;;4997154;28;976;-37
2022/01/20 09:43:58;;;;;;;;;;;22.60;52.30;;;;;;4996551;28;1044;-38
2022/01/20 09:46:25;;;;;;;;;;;22.60;52.40;;;;;;4996405;28;1249;-38
2022/01/20 09:48:52;;;;;;;;;;;22.60;52.40;;;;;;4997233;28;1094;-37
2022/01/20 09:51:19;;;;;;;;;;;22.50;52.40;;;;;;4997419;28;933;-39
2022/01/20 09:53:47;;;;;;;;;;;22.60;52.30;;;;;;4997733;28;1009;-38
2022/01/20 09:56:14;;;;;;;;;;;22.60;52.30;;;;;;4996134;28;945;-39
2022/01/20 09:58:42;;;;;;;;;;;22.50;52.30;;;;;;4997371;28;1108;-37
2022/01/20 10:01:09;;;;;;;;;;;22.50;52.40;;;;;;4997455;28;1906;-38
2022/01/20 10:03:37;;;;;;;;;;;22.50;52.50;;;;;;4995828;28;997;-37
2022/01/20 10:06:04;;;;;;;;;;;22.50;52.40;;;;;;4996849;28;877;-38
2022/01/20 10:08:32;;;;;;;;;;;22.50;52.40;;;;;;4996980;28;977;-38
2022/01/20 10:11:01;;;;;;;;;;;22.50;52.40;;;;;;4997455;28;1023;-38
2022/01/20 10:13:29;;;;;;;;;;;22.50;52.30;;;;;;4996997;28;1139;-38
2022/01/20 10:16:00;;;;;;;;;;;22.50;52.40;;;;;;4996070;28;968;-41
2022/01/20 10:18:27;;;;;;;;;;;22.60;52.40;;;;;;4997455;28;941;-39
2022/01/20 10:20:55;;;;;;;;;;;22.50;52.20;;;;;;4997237;28;1989;-37
2022/01/20 10:23:29;;;;;;;;;;;22.50;52.40;;;;;;4997314;28;981;-38
2022/01/20 10:26:04;;;;;;;;;;;22.50;52.30;;;;;;4997030;28;996;-39
2022/01/20 10:28:31;;;;;;;;;;;22.50;52.30;;;;;;4996968;28;1020;-39
2022/01/20 10:30:57;;;;;;;;;;;22.50;52.10;;;;;;4996590;28;1194;-38
2022/01/20 10:33:24;;;;;;;;;;;22.50;52.10;;;;;;4996877;28;992;-37
2022/01/20 10:35:52;;;;;;;;;;;22.50;52.20;;;;;;4997048;28;1079;-38
2022/01/20 10:38:20;;;;;;;;;;;22.50;52.20;;;;;;4996789;28;981;-37
2022/01/20 10:40:47;;;;;;;;;;;22.50;52.10;;;;;;4996255;28;1906;-38
2022/01/20 10:43:22;;;;;;;;;;;22.50;52.10;;;;;;4995638;28;962;-38
2022/01/20 10:45:49;;;;;;;;;;;22.50;52.10;;;;;;4995316;28;1245;-37
2022/01/20 10:48:19;;;;;;;;;;;22.50;52.20;;;;;;4996127;28;993;-38
2022/01/20 10:50:47;;;;;;;;;;;22.50;52.10;;;;;;4995993;28;1857;-40
2022/01/20 10:53:17;;;;;;;;;;;22.50;52.20;;;;;;4996409;28;989;-38
2022/01/20 10:55:44;;;;;;;;;;;22.50;52.20;;;;;;4996378;28;949;-39
2022/01/20 10:58:13;;;;;;;;;;;22.40;52.10;;;;;;4995478;28;953;-37
2022/01/20 11:00:43;;;;;;;;;;;22.40;52.30;;;;;;4996534;28;1979;-37
2022/01/20 11:03:10;;;;;;;;;;;22.30;52.20;;;;;;4995905;28;941;-38
2022/01/20 11:05:39;;;;;;;;;;;22.30;52.40;;;;;;4996190;28;976;-39
2022/01/20 11:08:05;;;;;;;;;;;22.30;52.30;;;;;;4995211;28;965;-40
2022/01/20 11:10:33;;;;;;;;;;;22.30;52.30;;;;;;4995979;28;1019;-39
2022/01/20 11:12:59;;;;;;;;;;;22.30;52.20;;;;;;4994835;28;1016;-37
2022/01/20 11:15:28;;;;;;;;;;;22.40;52.30;;;;;;4995121;28;988;-36
2022/01/20 11:17:57;;;;;;;;;;;22.40;52.10;;;;;;4995071;28;952;-37
2022/01/20 11:20:26;;;;;;;;;;;22.40;52.10;;;;;;4995343;28;1902;-39
2022/01/20 11:22:54;;;;;;;;;;;22.40;52.20;;;;;;4996120;28;1288;-37
2022/01/20 11:25:22;;;;;;;;;;;22.30;52.10;;;;;;4995655;28;956;-38
2022/01/20 11:27:51;;;;;;;;;;;22.30;52.10;;;;;;4996191;28;933;-37
2022/01/20 11:30:21;;;;;;;;;;;22.30;52.20;;;;;;4995519;28;1034;-39
2022/01/20 11:32:59;;;;;;;;;;;22.30;52.20;;;;;;4995954;28;1015;-37
2022/01/20 11:35:36;;;;;;;;;;;22.20;52.30;;;;;;4995642;28;980;-39
2022/01/20 11:38:02;;;;;;;;;;;22.30;52.30;;;;;;4995228;28;1000;-37
2022/01/20 11:40:29;;;;;;;;;;;22.30;52.10;;;;;;4995268;28;1898;-37
2022/01/20 11:42:57;;;;;;;;;;;22.30;52.10;;;;;;4995282;28;1167;-37
2022/01/20 11:45:28;;;;;;;;;;;22.30;52.10;;;;;;4995242;28;1027;-37
2022/01/20 11:47:55;;;;;;;;;;;22.30;52.10;;;;;;4995433;28;949;-37
2022/01/20 11:50:23;;;;;;;;;;;22.30;52.10;;;;;;4994765;28;1024;-38
2022/01/20 11:52:50;;;;;;;;;;;22.30;52.10;;;;;;4994902;28;980;-38
2022/01/20 11:55:18;;;;;;;;;;;22.20;52.20;;;;;;4993239;28;873;-38
2022/01/20 11:57:45;;;;;;;;;;;22.30;52.20;;;;;;4994315;28;974;-40
2022/01/20 12:00:23;;;;;;;;;;;22.30;52.10;;;;;;4994456;28;1891;-38
2022/01/20 12:02:50;;;;;;;;;;;22.30;52.20;;;;;;4994935;28;969;-38
2022/01/20 12:05:19;;;;;;;;;;;22.30;52.10;;;;;;4995812;28;1915;-39
2022/01/20 12:07:47;;;;;;;;;;;22.30;52.10;;;;;;4996196;28;1012;-37
2022/01/20 12:10:15;;;;;;;;;;;22.30;52.20;;;;;;4995298;28;1020;-38
2022/01/20 12:12:42;;;;;;;;;;;22.30;52.10;;;;;;4993105;28;876;-38
2022/01/20 12:15:10;;;;;;;;;;;22.30;52.00;;;;;;4994442;28;1084;-39
2022/01/20 12:17:41;;;;;;;;;;;22.30;52.00;;;;;;4995212;28;953;-38
2022/01/20 12:20:09;;;;;;;;;;;22.30;52.20;;;;;;4993818;28;1895;-38
2022/01/20 12:22:39;;;;;;;;;;;22.20;52.10;;;;;;4993521;28;1306;-37
2022/01/20 12:25:07;;;;;;;;;;;22.20;52.20;;;;;;4993975;28;936;-37
2022/01/20 12:27:34;;;;;;;;;;;22.20;52.20;;;;;;4994058;28;1040;-37
2022/01/20 12:30:01;;;;;;;;;;;22.20;52.20;;;;;;4993951;28;988;-42
2022/01/20 12:32:28;;;;;;;;;;;22.20;52.10;;;;;;4993254;28;1001;-38
2022/01/20 12:34:59;;;;;;;;;;;22.30;52.20;;;;;;4992663;28;967;-39
2022/01/20 12:37:35;;;;;;;;;;;22.30;52.00;;;;;;4992727;28;980;-38
2022/01/20 12:40:02;;;;;;;;;;;22.20;52.10;;;;;;4993979;28;1902;-37
2022/01/20 12:42:35;;;;;;;;;;;22.30;52.10;;;;;;4993546;28;950;-38
2022/01/20 12:45:05;;;;;;;;;;;22.30;51.90;;;;;;4993695;28;1056;-39
2022/01/20 12:47:32;;;;;;;;;;;22.20;52.00;;;;;;4994207;28;985;-38
2022/01/20 12:50:00;;;;;;;;;;;22.20;52.30;;;;;;4992711;28;1034;-37
2022/01/20 12:52:27;;;;;;;;;;;22.20;52.00;;;;;;4993312;28;899;-37
2022/01/20 12:54:54;;;;;;;;;;;22.10;51.80;;;;;;4994829;28;913;-38
2022/01/20 12:57:21;;;;;;;;;;;22.10;51.80;;;;;;4994068;28;1004;-37
2022/01/20 12:59:49;;;;;;;;;;;22.10;52.20;;;;;;4993925;28;1985;-37
2022/01/20 13:02:19;;;;;;;;;;;22.10;51.90;;;;;;4992487;28;1048;-37
2022/01/20 13:04:47;;;;;;;;;;;22.20;52.10;;;;;;4993273;28;1008;-38
2022/01/20 13:07:16;;;;;;;;;;;22.10;51.90;;;;;;4994351;28;976;-37
2022/01/20 13:09:46;;;;;;;;;;;22.20;51.90;;;;;;4993743;28;984;-37
2022/01/20 13:12:14;;;;;;;;;;;22.10;51.90;;;;;;4993945;28;996;-37
2022/01/20 13:14:42;;;;;;;;;;;22.10;51.80;;;;;;4993384;28;949;-38
2022/01/20 13:17:10;;;;;;;;;;;22.10;51.90;;;;;;4992683;28;937;-38
2022/01/20 13:19:38;;;;;;;;;;;22.10;53.00;;;;;;4993680;28;909;-37
2022/01/20 13:22:07;;;;;;;;;;;22.10;51.90;;;;;;4994374;28;1977;-37
2022/01/20 13:24:36;;;;;;;;;;;22.10;51.90;;;;;;4992924;28;886;-38
2022/01/20 13:27:03;;;;;;;;;;;22.10;51.90;;;;;;4993476;28;1035;-38
2022/01/20 13:29:39;;;;;;;;;;;22.00;51.90;;;;;;4993655;28;977;-38
2022/01/20 13:32:06;;;;;;;;;;;22.00;51.70;;;;;;4993299;28;1016;-38
2022/01/20 13:34:35;;;;;;;;;;;22.10;51.80;;;;;;4992832;28;871;-37
2022/01/20 13:37:02;;;;;;;;;;;22.00;51.70;;;;;;4994025;28;919;-37
2022/01/20 13:39:30;;;;;;;;;;;22.00;51.90;;;;;;4993661;28;1008;-38
2022/01/20 13:42:24;;;;;;;;;;;22.00;51.70;;;;;;4993557;28;1906;-39
2022/01/20 13:45:15;;;;;;;;;;;22.10;51.60;;;;;;4993065;28;1277;-37
2022/01/20 13:47:52;;;;;;;;;;;22.20;51.50;;;;;;4993960;28;1105;-36
2022/01/20 13:50:21;;;;;;;;;;;22.20;51.50;;;;;;4992638;28;1017;-38
2022/01/20 13:52:48;;;;;;;;;;;22.20;51.20;;;;;;4993328;28;1043;-39
2022/01/20 13:55:23;;;;;;;;;;;22.10;51.40;;;;;;4993212;28;1386;-37
2022/01/20 13:57:50;;;;;;;;;;;22.20;51.60;;;;;;4993637;28;986;-39
2022/01/20 14:00:19;;;;;;;;;;;22.20;51.90;;;;;;4993167;28;1906;-38
2022/01/20 14:02:47;;;;;;;;;;;22.10;52.00;;;;;;4993959;28;957;-39
2022/01/20 14:05:14;;;;;;;;;;;22.20;52.10;;;;;;4993257;28;1015;-38
2022/01/20 14:07:42;;;;;;;;;;;22.20;52.00;;;;;;4993173;28;1058;-39
2022/01/20 14:10:10;;;;;;;;;;;22.20;51.80;;;;;;4993857;28;972;-37
2022/01/20 14:12:36;;;;;;;;;;;22.10;51.90;;;;;;4993768;28;1001;-37
2022/01/20 14:15:04;;;;;;;;;;;22.20;51.80;;;;;;4993561;28;1047;-38
2022/01/20 14:17:35;;;;;;;;;;;22.20;51.60;;;;;;4994585;28;989;-38
2022/01/20 14:20:06;;;;;;;;;;;22.30;51.70;;;;;;4996891;28;1016;-37
2022/01/20 14:22:33;;;;;;;;;;;22.20;51.70;;;;;;4996561;28;1965;-37
2022/01/20 14:25:02;;;;;;;;;;;22.20;51.70;;;;;;4996361;28;1063;-37
2022/01/20 14:27:28;;;;;;;;;;;22.30;51.80;;;;;;4996400;28;999;-39
2022/01/20 14:29:55;;;;;;;;;;;22.20;51.70;;;;;;4994467;28;1013;-38
2022/01/20 14:32:22;;;;;;;;;;;22.20;51.80;;;;;;4996059;28;987;-36
2022/01/20 14:34:49;;;;;;;;;;;22.20;51.80;;;;;;4994284;28;1028;-37
2022/01/20 14:37:16;;;;;;;;;;;22.20;51.90;;;;;;4994310;28;940;-37
2022/01/20 14:39:43;;;;;;;;;;;22.10;51.80;;;;;;4995982;28;1004;-39
2022/01/20 14:42:12;;;;;;;;;;;22.20;51.90;;;;;;4994245;28;1981;-39
2022/01/20 14:44:39;;;;;;;;;;;22.20;51.90;;;;;;4995483;28;1128;-37
2022/01/20 14:47:07;;;;;;;;;;;22.20;51.90;;;;;;4995658;28;1175;-38
2022/01/20 14:49:34;;;;;;;;;;;22.10;51.70;;;;;;4995299;28;940;-37
2022/01/20 14:52:01;;;;;;;;;;;22.10;51.70;;;;;;4995034;28;989;-39
2022/01/20 14:54:28;;;;;;;;;;;22.10;51.80;;;;;;4994946;28;1007;-38
2022/01/20 14:56:55;;;;;;;;;;;22.10;51.80;;;;;;4994332;28;951;-38
2022/01/20 14:59:23;;;;;;;;;;;22.00;51.60;;;;;;4994205;28;1777;-38
2022/01/20 15:01:50;;;;;;;;;;;22.00;51.70;;;;;;4992942;28;1898;-38
2022/01/20 15:04:17;;;;;;;;;;;22.00;51.60;;;;;;4993977;28;972;-38
2022/01/20 15:06:44;;;;;;;;;;;22.00;51.60;;;;;;4993793;28;1466;-38
2022/01/20 15:09:11;;;;;;;;;;;22.00;51.70;;;;;;4994160;28;1047;-39
2022/01/20 15:11:37;;;;;;;;;;;22.10;51.80;;;;;;4994320;28;1017;-38
2022/01/20 15:14:04;;;;;;;;;;;22.10;51.80;;;;;;4995191;28;933;-38
2022/01/20 15:16:32;;;;;;;;;;;22.00;51.70;;;;;;4994916;28;998;-38
2022/01/20 15:19:03;;;;;;;;;;;22.00;51.90;;;;;;4994758;28;1003;-38
2022/01/20 15:21:30;;;;;;;;;;;22.00;51.70;;;;;;4995272;28;1915;-38
2022/01/20 15:23:56;;;;;;;;;;;22.00;51.80;;;;;;4995275;28;1049;-37
2022/01/20 15:26:24;;;;;;;;;;;22.00;51.80;;;;;;4994239;28;944;-37
2022/01/20 15:28:57;;;;;;;;;;;22.00;51.70;;;;;;4994448;28;993;-38
2022/01/20 15:31:25;;;;;;;;;;;22.00;51.70;;;;;;4995258;28;937;-37
2022/01/20 15:33:53;;;;;;;;;;;22.00;51.70;;;;;;4995114;28;1126;-38